createdAt,value
2022-11-15T00:01:53.285Z,100.00
2022-11-15T00:04:39.539Z,100.00
2022-11-15T00:07:53.635Z,100.00
2022-11-15T00:10:31.309Z,100.00
2022-11-15T00:13:17.873Z,100.00
2022-11-15T00:16:04.188Z,100.00
2022-11-15T00:18:51.008Z,100.00
2022-11-15T00:21:37.238Z,100.00
2022-11-15T00:24:23.228Z,100.00
2022-11-15T00:27:09.138Z,100.00
2022-11-15T00:29:54.977Z,100.00
2022-11-15T00:32:40.731Z,100.00
2022-11-15T00:35:28.589Z,100.00
2022-11-15T00:38:14.118Z,100.00
2022-11-15T00:41:02.737Z,100.00
2022-11-15T00:43:50.984Z,100.00
2022-11-15T00:46:37.094Z,100.00
2022-11-15T00:49:22.676Z,100.00
2022-11-15T00:52:09.139Z,100.00
2022-11-15T00:54:55.039Z,100.00
2022-11-15T00:57:40.838Z,100.00
2022-11-15T01:00:26.614Z,100.00
2022-11-15T01:03:13.031Z,100.00
2022-11-15T01:06:01.162Z,100.00
2022-11-15T01:08:47.051Z,100.00
2022-11-15T01:11:33.237Z,100.00
2022-11-15T01:14:25.081Z,100.00
2022-11-15T01:17:11.113Z,100.00
2022-11-15T01:19:57.151Z,100.00
2022-11-15T01:22:42.487Z,100.00
2022-11-15T01:25:28.726Z,100.00
2022-11-15T01:28:14.670Z,100.00
2022-11-15T01:31:02.488Z,100.00
2022-11-15T01:33:49.093Z,100.00
2022-11-15T01:36:41.395Z,100.00
2022-11-15T01:39:27.636Z,100.00
2022-11-15T01:42:14.569Z,100.00
2022-11-15T01:45:00.269Z,100.00
2022-11-15T01:47:54.492Z,100.00
2022-11-15T01:50:40.152Z,100.00
2022-11-15T01:53:27.193Z,100.00
2022-11-15T01:56:20.790Z,100.00
2022-11-15T01:59:09.176Z,100.00
2022-11-15T02:01:54.758Z,100.00
2022-11-15T02:04:45.879Z,100.00
2022-11-15T02:07:35.607Z,100.00
2022-11-15T02:10:24.303Z,100.00
2022-11-15T02:13:11.401Z,100.00
2022-11-15T02:16:09.454Z,100.00
2022-11-15T02:19:14.410Z,100.00
2022-11-15T02:22:12.489Z,100.00
2022-11-15T02:25:00.707Z,100.00
2022-11-15T02:28:22.846Z,100.00
2022-11-15T02:31:33.668Z,100.00
2022-11-15T02:34:34.901Z,100.00
2022-11-15T02:37:26.101Z,100.00
2022-11-15T02:40:43.009Z,100.00
2022-11-15T02:43:58.425Z,100.00
2022-11-15T02:47:11.590Z,100.00
2022-11-15T02:50:02.739Z,100.00
2022-11-15T02:52:50.350Z,100.00
2022-11-15T02:55:48.859Z,100.00
2022-11-15T02:58:49.103Z,100.00
2022-11-15T03:02:01.194Z,100.00
2022-11-15T03:05:08.189Z,100.00
2022-11-15T03:08:01.022Z,100.00
2022-11-15T03:11:12.652Z,100.00
2022-11-15T03:14:26.706Z,100.00
2022-11-15T03:17:15.085Z,100.00
2022-11-15T03:20:05.098Z,100.00
2022-11-15T03:22:52.585Z,100.00
2022-11-15T03:25:42.313Z,100.00
2022-11-15T03:28:48.989Z,100.00
2022-11-15T03:31:51.333Z,100.00
2022-11-15T03:34:56.043Z,100.00
2022-11-15T03:38:00.965Z,100.00
2022-11-15T03:40:50.388Z,100.00
2022-11-15T03:43:54.275Z,100.00
2022-11-15T03:47:02.638Z,100.00
2022-11-15T03:49:54.458Z,100.00
2022-11-15T03:52:41.154Z,100.00
2022-11-15T03:55:26.467Z,100.00
2022-11-15T03:58:11.920Z,100.00
2022-11-15T04:00:57.579Z,100.00
2022-11-15T04:03:43.131Z,100.00
2022-11-15T04:06:29.083Z,100.00
2022-11-15T04:09:14.548Z,100.00
2022-11-15T04:12:00.181Z,100.00
2022-11-15T04:15:05.491Z,100.00
2022-11-15T04:17:53.390Z,100.00
2022-11-15T04:20:56.791Z,100.00
2022-11-15T04:23:54.402Z,100.00
2022-11-15T04:26:39.765Z,100.00
2022-11-15T04:29:37.210Z,100.00
2022-11-15T04:32:22.701Z,100.00
2022-11-15T04:35:08.495Z,100.00
2022-11-15T04:37:54.351Z,100.00
2022-11-15T04:40:39.881Z,100.00
2022-11-15T04:43:25.635Z,100.00
2022-11-15T04:46:10.990Z,100.00
2022-11-15T04:48:58.965Z,100.00
2022-11-15T04:51:45.088Z,100.00
2022-11-15T04:54:30.915Z,100.00
2022-11-15T04:57:17.607Z,100.00
2022-11-15T05:00:05.895Z,100.00
2022-11-15T05:03:10.663Z,100.00
2022-11-15T05:05:56.654Z,100.00
2022-11-15T05:08:42.142Z,100.00
2022-11-15T05:11:30.721Z,100.00
2022-11-15T05:14:16.458Z,100.00
2022-11-15T05:17:02.000Z,100.00
2022-11-15T05:19:47.784Z,100.00
2022-11-15T05:22:33.205Z,100.00
2022-11-15T05:25:18.355Z,100.00
2022-11-15T05:28:03.671Z,100.00
2022-11-15T05:30:48.878Z,100.00
2022-11-15T05:33:36.619Z,100.00
2022-11-15T05:36:42.177Z,100.00
2022-11-15T05:39:27.871Z,100.00
2022-11-15T05:42:16.308Z,100.00
2022-11-15T05:45:06.862Z,100.00
2022-11-15T05:47:54.061Z,100.00
2022-11-15T05:50:42.591Z,100.00
2022-11-15T05:53:28.992Z,100.00
2022-11-15T05:56:15.629Z,100.00
2022-11-15T05:59:01.317Z,100.00
2022-11-15T06:01:46.896Z,100.00
2022-11-15T06:04:32.487Z,100.00
2022-11-15T06:07:18.195Z,100.00
2022-11-15T06:10:03.851Z,100.00
2022-11-15T06:13:00.563Z,100.00
2022-11-15T06:15:46.422Z,100.00
2022-11-15T06:18:34.660Z,100.00
2022-11-15T06:21:20.381Z,100.00
2022-11-15T06:24:06.781Z,100.00
2022-11-15T06:26:52.613Z,100.00
2022-11-15T06:29:38.054Z,100.00
2022-11-15T06:32:23.660Z,100.00
2022-11-15T06:35:09.465Z,100.00
2022-11-15T06:37:54.722Z,100.00
2022-11-15T06:40:40.805Z,100.00
2022-11-15T06:43:26.256Z,100.00
2022-11-15T06:46:12.110Z,100.00
2022-11-15T06:48:57.674Z,100.00
2022-11-15T06:51:43.122Z,100.00
2022-11-15T06:54:28.654Z,100.00
2022-11-15T06:57:14.436Z,100.00
2022-11-15T07:00:00.013Z,100.00
2022-11-15T07:02:45.805Z,100.00
2022-11-15T07:05:31.433Z,100.00
2022-11-15T07:08:17.104Z,100.00
2022-11-15T07:11:04.765Z,100.00
2022-11-15T07:13:50.513Z,100.00
2022-11-15T07:16:37.783Z,100.00
2022-11-15T07:19:23.454Z,100.00
2022-11-15T07:22:08.733Z,100.00
2022-11-15T07:24:53.962Z,100.00
2022-11-15T07:27:39.711Z,100.00
2022-11-15T07:30:25.587Z,100.00
2022-11-15T07:33:11.094Z,100.00
2022-11-15T07:36:00.910Z,100.00
2022-11-15T07:38:46.296Z,100.00
2022-11-15T07:41:32.031Z,100.00
2022-11-15T07:44:17.807Z,100.00
2022-11-15T07:47:03.487Z,100.00
2022-11-15T07:49:49.308Z,100.00
2022-11-15T07:52:34.648Z,100.00
2022-11-15T07:55:20.364Z,100.00
2022-11-15T07:58:08.356Z,100.00
2022-11-15T08:00:53.656Z,100.00
2022-11-15T08:03:39.648Z,100.00
2022-11-15T08:06:24.863Z,100.00
2022-11-15T08:09:10.207Z,100.00
2022-11-15T08:11:55.534Z,100.00
2022-11-15T08:14:40.892Z,100.00
2022-11-15T08:17:26.712Z,100.00
2022-11-15T08:20:12.184Z,100.00
2022-11-15T08:22:58.875Z,100.00
2022-11-15T08:25:44.752Z,100.00
2022-11-15T08:28:31.376Z,100.00
2022-11-15T08:31:19.335Z,100.00
2022-11-15T08:34:06.655Z,100.00
2022-11-15T08:36:52.226Z,100.00
2022-11-15T08:39:38.982Z,100.00
2022-11-15T08:42:24.152Z,100.00
2022-11-15T08:45:10.302Z,100.00
2022-11-15T08:47:55.934Z,100.00
2022-11-15T08:50:41.576Z,100.00
2022-11-15T08:53:26.894Z,100.00
2022-11-15T08:56:15.571Z,100.00
2022-11-15T08:59:01.229Z,100.00
2022-11-15T09:01:46.382Z,99.33
2022-11-15T09:04:32.134Z,100.00
2022-11-15T09:07:17.408Z,100.00
2022-11-15T09:10:03.031Z,99.49
2022-11-15T09:12:51.868Z,100.00
2022-11-15T09:15:37.626Z,100.00
2022-11-15T09:18:23.803Z,100.00
2022-11-15T09:21:09.763Z,100.00
2022-11-15T09:23:55.474Z,98.33
2022-11-15T09:26:41.911Z,99.23
2022-11-15T09:29:27.419Z,98.14
2022-11-15T09:32:13.001Z,96.89
2022-11-15T09:34:58.931Z,98.47
2022-11-15T09:37:44.844Z,97.22
2022-11-15T09:40:33.655Z,96.10
2022-11-15T09:43:45.454Z,97.04
2022-11-15T09:47:09.229Z,97.25
2022-11-15T09:50:11.143Z,97.84
2022-11-15T09:52:40.278Z,98.14
2022-11-15T09:55:11.317Z,99.04
2022-11-15T09:58:07.203Z,97.53
2022-11-15T10:00:48.880Z,96.76
2022-11-15T10:03:26.443Z,98.14
2022-11-15T10:05:56.495Z,97.70
2022-11-15T10:08:35.767Z,95.60
2022-11-15T10:13:59.913Z,95.20
2022-11-15T10:16:39.023Z,94.59
2022-11-15T10:19:14.755Z,95.37
2022-11-15T10:21:55.322Z,94.80
2022-11-15T10:24:38.288Z,94.41
2022-11-15T10:27:15.504Z,93.41
2022-11-15T10:29:47.849Z,93.48
2022-11-15T10:32:18.286Z,92.86
2022-11-15T10:34:45.535Z,92.43
2022-11-15T10:37:12.549Z,92.60
2022-11-15T10:39:39.548Z,90.70
2022-11-15T10:42:29.602Z,90.19
2022-11-15T10:44:56.604Z,88.95
2022-11-15T10:47:39.186Z,87.88
2022-11-15T10:50:30.206Z,88.81
2022-11-15T10:52:57.664Z,87.52
2022-11-15T10:55:30.807Z,87.36
2022-11-15T10:58:05.829Z,86.10
2022-11-15T11:00:36.713Z,86.51
2022-11-15T11:03:08.299Z,87.05
2022-11-15T11:05:42.276Z,85.61
2022-11-15T11:08:15.816Z,85.38
2022-11-15T11:11:02.635Z,85.88
2022-11-15T11:13:34.264Z,84.39
2022-11-15T11:16:16.326Z,83.76
2022-11-15T11:18:52.120Z,84.17
2022-11-15T11:21:50.793Z,83.76
2022-11-15T11:24:20.552Z,85.07
2022-11-15T11:27:05.678Z,84.54
2022-11-15T11:30:02.940Z,84.47
2022-11-15T11:32:43.285Z,84.03
2022-11-15T11:35:20.976Z,82.88
2022-11-15T11:37:54.260Z,83.01
2022-11-15T11:40:40.300Z,83.50
2022-11-15T11:43:41.013Z,84.27
2022-11-15T11:46:29.092Z,85.21
2022-11-15T11:49:05.402Z,85.45
2022-11-15T11:51:46.914Z,85.80
2022-11-15T11:54:32.519Z,86.10
2022-11-15T11:57:01.178Z,85.68
2022-11-15T11:59:54.423Z,85.52
2022-11-15T12:02:25.373Z,86.45
2022-11-15T12:04:58.033Z,85.96
2022-11-15T12:07:29.756Z,86.21
2022-11-15T12:10:01.294Z,85.30
2022-11-15T12:12:59.488Z,84.56
2022-11-15T12:18:02.729Z,85.09
2022-11-15T12:20:39.815Z,84.38
2022-11-15T12:23:16.281Z,84.12
2022-11-15T12:25:46.167Z,83.79
2022-11-15T12:28:20.974Z,83.23
2022-11-15T12:30:47.813Z,83.75
2022-11-15T12:33:38.571Z,84.25
2022-11-15T12:36:35.790Z,84.31
2022-11-15T12:39:10.789Z,83.94
2022-11-15T12:41:41.201Z,84.47
2022-11-15T12:44:32.938Z,84.22
2022-11-15T12:47:04.071Z,84.62
2022-11-15T12:49:30.882Z,84.74
2022-11-15T12:51:57.688Z,84.94
2022-11-15T12:54:24.687Z,84.81
2022-11-15T12:57:04.001Z,84.38
2022-11-15T13:00:05.317Z,84.24
2022-11-15T13:02:37.195Z,84.97
2022-11-15T13:05:19.543Z,86.10
2022-11-15T13:07:46.324Z,88.31
2022-11-15T13:10:13.219Z,88.88
2022-11-15T13:12:45.703Z,88.63
2022-11-15T13:15:18.389Z,88.61
2022-11-15T13:17:53.709Z,89.14
2022-11-15T13:20:32.182Z,88.93
2022-11-15T13:23:10.477Z,88.22
2022-11-15T13:25:37.493Z,87.78
2022-11-15T13:28:14.900Z,88.04
2022-11-15T13:30:47.793Z,88.63
2022-11-15T13:33:24.096Z,88.16
2022-11-15T13:35:56.094Z,87.92
2022-11-15T13:38:30.979Z,88.75
2022-11-15T13:41:00.378Z,87.99
2022-11-15T13:43:29.711Z,88.54
2022-11-15T13:46:09.371Z,88.11
2022-11-15T13:48:37.161Z,87.58
2022-11-15T13:51:30.547Z,88.25
2022-11-15T13:54:16.360Z,88.93
2022-11-15T13:56:48.038Z,89.85
2022-11-15T13:59:32.858Z,89.63
2022-11-15T14:02:05.970Z,90.24
2022-11-15T14:04:41.414Z,89.12
2022-11-15T14:07:19.692Z,89.23
2022-11-15T14:09:48.365Z,90.49
2022-11-15T14:12:30.972Z,90.67
2022-11-15T14:15:00.568Z,91.40
2022-11-15T14:17:30.152Z,91.27
2022-11-15T14:19:58.581Z,91.19
2022-11-15T14:22:27.902Z,91.34
2022-11-15T14:25:39.619Z,91.96
2022-11-15T14:28:31.135Z,91.81
2022-11-15T14:31:00.318Z,92.04
2022-11-15T14:33:35.862Z,92.20
2022-11-15T14:36:07.864Z,92.31
2022-11-15T14:38:36.044Z,92.71
2022-11-15T14:41:04.122Z,93.08
2022-11-15T14:43:31.276Z,92.56
2022-11-15T14:45:58.250Z,93.32
2022-11-15T14:48:25.763Z,93.56
2022-11-15T14:50:52.590Z,94.65
2022-11-15T14:53:20.966Z,93.92
2022-11-15T14:55:48.204Z,94.64
2022-11-15T14:58:15.310Z,94.93
2022-11-15T15:00:42.637Z,95.71
2022-11-15T15:03:10.442Z,96.02
2022-11-15T15:05:40.367Z,95.92
2022-11-15T15:08:08.789Z,96.37
2022-11-15T15:10:40.980Z,97.79
2022-11-15T15:13:25.277Z,97.94
2022-11-15T15:15:53.426Z,98.01
2022-11-15T15:18:21.012Z,98.37
2022-11-15T15:21:03.931Z,98.08
2022-11-15T15:23:32.152Z,98.39
2022-11-15T15:25:59.455Z,98.22
2022-11-15T15:28:34.200Z,98.13
2022-11-15T15:31:03.226Z,97.69
2022-11-15T15:33:30.766Z,97.73
2022-11-15T15:35:57.864Z,98.14
2022-11-15T15:38:24.847Z,98.53
2022-11-15T15:40:52.298Z,98.08
2022-11-15T15:43:19.114Z,97.49
2022-11-15T15:45:46.503Z,98.00
2022-11-15T15:48:17.988Z,98.13
2022-11-15T15:50:45.249Z,98.43
2022-11-15T15:53:13.608Z,99.00
2022-11-15T15:55:42.348Z,99.04
2022-11-15T15:58:09.483Z,99.57
2022-11-15T16:00:37.174Z,100.00
2022-11-15T16:03:04.666Z,100.00
2022-11-15T16:05:31.890Z,99.16
2022-11-15T16:07:58.866Z,99.80
2022-11-15T16:10:29.034Z,100.00
2022-11-15T16:12:57.303Z,100.00
2022-11-15T16:15:27.547Z,100.00
2022-11-15T16:17:56.938Z,100.00
2022-11-15T16:20:33.349Z,100.00
2022-11-15T16:23:07.517Z,100.00
2022-11-15T16:25:42.147Z,100.00
2022-11-15T16:28:27.647Z,100.00
2022-11-15T16:31:11.589Z,100.00
2022-11-15T16:33:40.395Z,100.00
2022-11-15T16:36:17.918Z,100.00
2022-11-15T16:38:45.233Z,100.00
2022-11-15T16:41:12.573Z,100.00
2022-11-15T16:43:39.992Z,100.00
2022-11-15T16:46:14.951Z,100.00
2022-11-15T16:48:42.038Z,100.00
2022-11-15T16:51:09.295Z,100.00
2022-11-15T16:53:37.102Z,100.00
2022-11-15T16:56:04.299Z,100.00
2022-11-15T16:58:33.715Z,100.00
2022-11-15T17:01:01.137Z,100.00
2022-11-15T17:03:28.849Z,100.00
2022-11-15T17:05:59.724Z,100.00
2022-11-15T17:08:29.009Z,100.00
2022-11-15T17:10:55.830Z,100.00
2022-11-15T17:13:25.624Z,100.00
2022-11-15T17:16:05.033Z,100.00
2022-11-15T17:18:32.425Z,100.00
2022-11-15T17:21:05.634Z,100.00
2022-11-15T17:23:34.314Z,100.00
2022-11-15T17:26:28.154Z,100.00
2022-11-15T17:28:57.579Z,100.00
2022-11-15T17:31:25.560Z,100.00
2022-11-15T17:33:52.725Z,100.00
2022-11-15T17:36:20.100Z,100.00
2022-11-15T17:38:50.533Z,100.00
2022-11-15T17:41:18.078Z,100.00
2022-11-15T17:43:45.279Z,100.00
2022-11-15T17:46:14.942Z,100.00
2022-11-15T17:48:44.897Z,100.00
2022-11-15T17:51:16.339Z,100.00
2022-11-15T17:53:46.119Z,100.00
2022-11-15T17:56:15.255Z,100.00
2022-11-15T17:58:43.128Z,100.00
2022-11-15T18:01:16.865Z,100.00
2022-11-15T18:03:44.674Z,100.00
2022-11-15T18:06:11.970Z,100.00
2022-11-15T18:08:41.705Z,99.85
2022-11-15T18:11:22.768Z,100.00
2022-11-15T18:13:53.695Z,99.73
2022-11-15T18:16:22.949Z,100.00
2022-11-15T18:18:50.288Z,100.00
2022-11-15T18:21:20.108Z,99.38
2022-11-15T18:23:48.408Z,99.56
2022-11-15T18:26:17.931Z,99.56
2022-11-15T18:28:47.269Z,99.54
2022-11-15T18:31:19.760Z,100.00
2022-11-15T18:33:48.483Z,100.00
2022-11-15T18:36:21.213Z,100.00
2022-11-15T18:38:48.342Z,100.00
2022-11-15T18:41:20.109Z,100.00
2022-11-15T18:43:50.618Z,100.00
2022-11-15T18:46:23.700Z,100.00
2022-11-15T18:48:52.925Z,100.00
2022-11-15T18:51:22.508Z,100.00
2022-11-15T18:53:49.625Z,100.00
2022-11-15T18:56:18.806Z,100.00
2022-11-15T18:58:48.521Z,100.00
2022-11-15T19:01:19.967Z,100.00
2022-11-15T19:03:52.221Z,100.00
2022-11-15T19:06:25.123Z,100.00
2022-11-15T19:08:54.743Z,100.00
2022-11-15T19:11:25.922Z,100.00
2022-11-15T19:13:58.000Z,100.00
2022-11-15T19:16:27.614Z,100.00
2022-11-15T19:18:59.507Z,100.00
2022-11-15T19:21:28.461Z,100.00
2022-11-15T19:23:55.443Z,100.00
2022-11-15T19:26:24.103Z,100.00
2022-11-15T19:28:53.647Z,100.00
2022-11-15T19:31:22.178Z,100.00
2022-11-15T19:33:49.442Z,100.00
2022-11-15T19:36:28.660Z,100.00
2022-11-15T19:38:56.467Z,100.00
2022-11-15T19:41:24.759Z,100.00
2022-11-15T19:43:52.485Z,100.00
2022-11-15T19:46:21.966Z,100.00
2022-11-15T19:48:49.210Z,100.00
2022-11-15T19:51:22.586Z,100.00
2022-11-15T19:53:52.678Z,100.00
2022-11-15T19:56:20.495Z,100.00
2022-11-15T19:58:52.404Z,100.00
2022-11-15T20:01:28.591Z,100.00
2022-11-15T20:03:58.829Z,100.00
2022-11-15T20:06:29.018Z,100.00
2022-11-15T20:09:00.567Z,100.00
2022-11-15T20:11:28.407Z,100.00
2022-11-15T20:13:59.649Z,100.00
2022-11-15T20:16:26.772Z,100.00
2022-11-15T20:18:54.395Z,100.00
2022-11-15T20:21:22.058Z,100.00
2022-11-15T20:23:51.081Z,100.00
2022-11-15T20:26:19.972Z,100.00
2022-11-15T20:28:48.247Z,100.00
2022-11-15T20:31:16.070Z,100.00
2022-11-15T20:33:43.041Z,100.00
2022-11-15T20:36:12.552Z,100.00
2022-11-15T20:38:39.620Z,100.00
2022-11-15T20:41:06.973Z,100.00
2022-11-15T20:43:33.982Z,100.00
2022-11-15T20:46:01.092Z,100.00
2022-11-15T20:48:28.271Z,100.00
2022-11-15T20:51:07.269Z,100.00
2022-11-15T20:53:35.539Z,100.00
2022-11-15T20:56:13.383Z,100.00
2022-11-15T20:58:41.325Z,100.00
2022-11-15T21:01:10.748Z,100.00
2022-11-15T21:03:38.028Z,100.00
2022-11-15T21:06:05.440Z,100.00
2022-11-15T21:08:53.292Z,100.00
2022-11-15T21:11:39.395Z,100.00
2022-11-15T21:14:09.247Z,100.00
2022-11-15T21:16:37.898Z,100.00
2022-11-15T21:19:06.913Z,100.00
2022-11-15T21:21:35.806Z,100.00
2022-11-15T21:24:04.291Z,100.00
2022-11-15T21:26:31.286Z,100.00
2022-11-15T21:28:58.167Z,100.00
2022-11-15T21:31:25.059Z,100.00
2022-11-15T21:33:51.970Z,100.00
2022-11-15T21:36:18.817Z,100.00
2022-11-15T21:38:45.673Z,100.00
2022-11-15T21:41:12.538Z,100.00
2022-11-15T21:43:39.450Z,100.00
2022-11-15T21:46:07.203Z,100.00
2022-11-15T21:48:35.696Z,100.00
2022-11-15T21:51:08.454Z,100.00
2022-11-15T21:53:35.738Z,100.00
2022-11-15T21:56:03.404Z,100.00
2022-11-15T21:58:31.677Z,100.00
2022-11-15T22:01:17.669Z,100.00
2022-11-15T22:03:44.651Z,100.00
2022-11-15T22:06:17.443Z,100.00
2022-11-15T22:08:45.937Z,100.00
2022-11-15T22:11:14.005Z,100.00
2022-11-15T22:13:41.447Z,100.00
2022-11-15T22:16:09.316Z,100.00
2022-11-15T22:18:39.034Z,100.00
2022-11-15T22:21:11.791Z,100.00
2022-11-15T22:23:39.991Z,100.00
2022-11-15T22:26:08.649Z,100.00
2022-11-15T22:28:36.633Z,100.00
2022-11-15T22:31:04.601Z,100.00
2022-11-15T22:33:32.834Z,100.00
2022-11-15T22:36:00.543Z,100.00
2022-11-15T22:38:28.418Z,100.00
2022-11-15T22:40:56.183Z,100.00
2022-11-15T22:43:25.317Z,100.00
2022-11-15T22:45:54.176Z,100.00
2022-11-15T22:48:24.013Z,100.00
2022-11-15T22:50:51.695Z,100.00
2022-11-15T22:53:19.322Z,100.00
2022-11-15T22:56:03.387Z,100.00
2022-11-15T22:58:34.556Z,100.00
2022-11-15T23:01:04.222Z,100.00
2022-11-15T23:03:32.504Z,100.00
2022-11-15T23:06:05.325Z,100.00
2022-11-15T23:08:33.068Z,100.00
2022-11-15T23:11:21.065Z,100.00
2022-11-15T23:13:52.815Z,100.00
2022-11-15T23:16:25.724Z,100.00
2022-11-15T23:18:56.774Z,100.00
2022-11-15T23:21:47.351Z,100.00
2022-11-15T23:24:15.428Z,100.00
2022-11-15T23:26:44.074Z,100.00
2022-11-15T23:29:13.382Z,100.00
2022-11-15T23:32:02.333Z,100.00
2022-11-15T23:34:37.461Z,100.00
2022-11-15T23:37:09.188Z,100.00
2022-11-15T23:39:36.242Z,100.00
2022-11-15T23:42:08.842Z,100.00
2022-11-15T23:44:36.926Z,100.00
2022-11-15T23:47:04.051Z,100.00
2022-11-15T23:49:31.104Z,100.00
2022-11-15T23:51:58.135Z,100.00
2022-11-15T23:54:25.203Z,100.00
2022-11-15T23:56:58.252Z,100.00
2022-11-15T23:59:25.286Z,100.00
